Airfield :
LOGIN :

Register | Disclaimer

   EN    FR    IT 

 










Legend :    VFR   Marginal VFR   IFR   Intensive IFR   Very Intensive IFR
Visi :
Ceiling :
>= 8 km
>= 3000ft
5 to 8 km
1000 to 3000 ft
1500m to 5 km
500 to 1000 ft
800 to 1500m
200 to 500 ft
< 800m
< 200 ft
Symbols :   Thunderstorms  Fog  Heavy snow  Heavy precipitations  Wind > 20 kt
SIGMETs :     Misc.  Thunderstorms  Icing  Turbulence  Mountain Waves  Volcanic Ashes






- Airport Elevation : 267 ft


EGDR - Culdrose Navy

CURRENT METAR :
  • 071750Z AUTO 22021KT 9999 // OVC012/// 10/09 Q1012

EXPIRED METARs :
  • 071650Z AUTO 22018KT 9999 // OVC009/// 10/09 Q1013
  • 071550Z AUTO 23020KT 9999 // OVC008/// 10/09 Q1014

TAF TAF EGDR
Valid from the 07 at 12:00 until the 07 at 21:00 UTC


071120Z 0712/0721 23012G20KT 9999 SCT016
TEMPO 0712/0718 SCT012
BECMG 0718/0721 20020G30KT BKN010
PROB40
TEMPO 0719/0721 3000 RADZ SCT005 BKN008



MET'MAP, your aeronautical weather chart ! - Copyright ORBIFLY December 2007 - Disclaimer

ORBIFLY MET'MAP TEAM :

Programming & Development : Alexandra Zaïnal
Concept & original design : Baudouin d'Aumeries
Assistance for programming : Marc-Olivier Méhu
Technical & hardware support : Manuel Goepfert

Contact : metmap@orbifly.com




SOURCES & CREDITS :

   NOAA